Time;durP1;ratioP1;P1;durP2;ratioP2;P2;SDS_P1;SDS_P2;PMS_P1;PMS_P2;Temp;Humidity;BMP_temperature;BMP_pressure;BME280_temperature;BME280_humidity;BME280_pressure;Samples;Min_cycle;Max_cycle;Signal;HPM_P1;HPM_P2
2022/01/17 00:02:28;;;;;;;51.85;37.85;;;8.30;94.40;;;;;;5015158;28;20029;-66
2022/01/17 00:04:54;;;;;;;50.85;36.80;;;8.20;94.50;;;;;;5015287;28;20037;-66
2022/01/17 00:07:20;;;;;;;48.60;36.05;;;8.20;94.60;;;;;;5015458;28;20030;-68
2022/01/17 00:09:46;;;;;;;51.92;36.92;;;8.20;94.50;;;;;;5014992;28;20088;-65
2022/01/17 00:12:11;;;;;;;47.95;37.17;;;8.10;94.30;;;;;;5015128;28;20042;-66
2022/01/17 00:14:41;;;;;;;56.58;38.35;;;8.10;94.50;;;;;;5014891;28;20395;-66
2022/01/17 00:19:45;;;;;;;54.80;38.90;;;8.00;94.50;;;;;;5014681;28;20026;-65
2022/01/17 00:22:13;;;;;;;53.05;38.50;;;7.90;94.30;;;;;;5014868;28;20526;-66
2022/01/17 00:24:39;;;;;;;51.75;39.92;;;7.90;94.60;;;;;;5015008;28;20467;-68
2022/01/17 00:27:05;;;;;;;52.88;39.85;;;8.00;94.40;;;;;;5014730;28;20029;-66
2022/01/17 00:29:31;;;;;;;59.28;39.35;;;7.90;94.30;;;;;;5014440;28;20044;-67
2022/01/17 00:31:57;;;;;;;53.95;39.88;;;7.90;94.20;;;;;;5014792;28;20034;-67
2022/01/17 00:34:23;;;;;;;51.63;39.20;;;7.90;94.20;;;;;;5014646;28;20514;-66
2022/01/17 00:36:49;;;;;;;50.03;38.28;;;7.90;94.40;;;;;;5014621;28;20053;-68
2022/01/17 00:39:16;;;;;;;51.95;38.70;;;7.90;94.40;;;;;;5014280;28;20025;-67
2022/01/17 00:41:41;;;;;;;49.80;37.38;;;7.90;94.40;;;;;;5014474;28;20088;-68
2022/01/17 00:44:07;;;;;;;46.83;35.83;;;7.80;94.20;;;;;;5014449;28;20026;-68
2022/01/17 00:46:34;;;;;;;47.33;35.83;;;7.80;94.10;;;;;;5014356;28;20028;-67
2022/01/17 00:49:00;;;;;;;46.75;35.92;;;7.70;94.20;;;;;;5014185;28;20046;-66
2022/01/17 00:51:26;;;;;;;43.35;34.88;;;7.60;94.00;;;;;;5014149;28;20387;-69
2022/01/17 00:53:52;;;;;;;49.00;35.60;;;7.60;94.30;;;;;;5014196;28;20042;-68
2022/01/17 00:56:22;;;;;;;46.00;33.58;;;7.60;94.20;;;;;;5012829;28;20026;-68
2022/01/17 00:58:49;;;;;;;49.22;35.28;;;7.60;94.30;;;;;;5029293;28;20371;-67
2022/01/17 01:01:15;;;;;;;45.67;35.00;;;7.60;94.10;;;;;;5013978;28;20041;-67
2022/01/17 01:03:40;;;;;;;46.17;34.00;;;7.60;94.20;;;;;;5014358;28;20030;-66
2022/01/17 01:06:07;;;;;;;47.22;34.85;;;7.60;94.20;;;;;;5014229;28;20030;-67
2022/01/17 01:08:33;;;;;;;46.97;35.45;;;7.60;94.20;;;;;;5013889;28;20033;-69
2022/01/17 01:10:59;;;;;;;44.88;34.03;;;7.70;94.20;;;;;;5012628;28;20041;-68
2022/01/17 01:13:28;;;;;;;38.75;32.88;;;7.70;94.00;;;;;;5013795;28;20184;-68
2022/01/17 01:29:21;;;;;;;45.20;33.78;;;7.80;93.90;;;;;;5013705;28;19936;-69
2022/01/17 01:31:52;;;;;;;43.53;32.75;;;7.80;93.80;;;;;;5012109;28;20026;-69
2022/01/17 01:34:21;;;;;;;43.65;32.50;;;7.80;93.60;;;;;;5014022;28;20091;-67
2022/01/17 01:36:48;;;;;;;43.40;31.35;;;7.80;93.70;;;;;;5013439;28;20144;-72
2022/01/17 01:39:22;;;;;;;45.17;33.17;;;7.70;93.50;;;;;;5013513;28;20021;-71
2022/01/17 01:41:48;;;;;;;42.97;32.22;;;7.70;93.50;;;;;;5013752;28;20447;-69
2022/01/17 01:44:15;;;;;;;39.95;31.08;;;7.70;93.60;;;;;;5013285;28;20029;-71
2022/01/17 01:46:43;;;;;;;42.38;31.75;;;7.70;93.70;;;;;;5013392;28;20380;-69
2022/01/17 01:49:09;;;;;;;42.00;30.92;;;7.60;93.80;;;;;;5013079;28;20046;-70
2022/01/17 01:51:34;;;;;;;41.67;31.08;;;7.60;93.70;;;;;;5012575;28;20034;-71
2022/01/17 01:54:00;;;;;;;37.75;30.02;;;7.60;93.70;;;;;;5013353;28;20041;-71
2022/01/17 01:56:26;;;;;;;37.25;29.60;;;7.60;93.50;;;;;;5013065;28;20049;-66
2022/01/17 01:58:52;;;;;;;40.20;30.70;;;7.60;93.70;;;;;;5028308;28;20022;-65
2022/01/17 02:01:17;;;;;;;38.25;29.58;;;7.60;93.80;;;;;;5012870;28;20037;-66
2022/01/17 02:03:43;;;;;;;41.08;29.90;;;7.60;93.80;;;;;;5013236;28;20030;-66
2022/01/17 02:06:09;;;;;;;38.42;28.80;;;7.60;93.80;;;;;;5013399;28;20090;-67
2022/01/17 02:08:35;;;;;;;39.35;29.95;;;7.60;93.70;;;;;;5013122;28;20026;-67
2022/01/17 02:11:01;;;;;;;39.63;31.33;;;7.60;93.90;;;;;;5013109;28;20030;-66
2022/01/17 02:13:27;;;;;;;40.92;30.42;;;7.50;93.60;;;;;;5013062;28;20129;-66
2022/01/17 02:16:03;;;;;;;39.70;31.23;;;7.50;93.80;;;;;;5012838;28;20100;-66
2022/01/17 02:18:31;;;;;;;38.95;30.17;;;7.50;93.70;;;;;;5012857;28;20037;-66
2022/01/17 02:23:36;;;;;;;39.20;30.13;;;7.60;93.80;;;;;;5013042;28;20029;-68
2022/01/17 02:26:01;;;;;;;43.05;32.65;;;7.60;93.70;;;;;;5012969;28;20029;-66
2022/01/17 02:28:28;;;;;;;40.42;31.73;;;7.50;93.50;;;;;;5012871;28;20037;-66
2022/01/17 02:30:53;;;;;;;43.00;33.78;;;7.50;93.60;;;;;;5012943;28;20084;-67
2022/01/17 02:33:19;;;;;;;40.92;31.58;;;7.50;93.60;;;;;;5012754;28;20062;-67
2022/01/17 02:35:49;;;;;;;35.33;29.77;;;7.60;93.70;;;;;;5012747;28;20097;-67
2022/01/17 02:38:15;;;;;;;41.58;31.33;;;7.70;93.70;;;;;;5012824;28;20026;-68
2022/01/17 02:40:40;;;;;;;41.58;29.70;;;7.70;93.70;;;;;;5012778;28;20471;-67
2022/01/17 02:43:07;;;;;;;41.33;30.85;;;7.70;93.70;;;;;;5013282;28;20025;-67
2022/01/17 02:48:23;;;;;;;38.63;30.42;;;7.70;93.80;;;;;;5012882;28;20479;-67
2022/01/17 02:50:49;;;;;;;40.60;30.67;;;7.70;93.80;;;;;;5012858;28;20080;-68
2022/01/17 02:53:15;;;;;;;40.60;31.05;;;7.60;93.50;;;;;;5012893;28;20479;-68
2022/01/17 02:55:59;;;;;;;39.00;30.38;;;7.60;93.80;;;;;;5011864;28;20050;-71
2022/01/17 02:58:27;;;;;;;41.35;30.85;;;7.60;92.70;;;;;;5012798;28;20464;-71
2022/01/17 03:00:55;;;;;;;37.97;29.75;;;7.60;93.70;;;;;;5012577;28;20546;-66
2022/01/17 03:03:24;;;;;;;38.92;29.40;;;7.70;93.80;;;;;;5013528;28;20368;-68
2022/01/17 03:05:50;;;;;;;37.35;29.40;;;7.70;93.60;;;;;;5016464;28;20026;-68
2022/01/17 03:08:16;;;;;;;41.30;30.80;;;7.70;93.50;;;;;;5016180;28;20033;-66
2022/01/17 03:10:43;;;;;;;42.58;31.05;;;7.70;93.70;;;;;;5016231;28;20025;-67
2022/01/17 03:13:18;;;;;;;39.70;30.98;;;7.60;93.40;;;;;;5016344;28;20118;-66
2022/01/17 03:15:47;;;;;;;40.78;30.25;;;7.50;93.60;;;;;;5016289;28;20109;-66
2022/01/17 03:18:13;;;;;;;37.83;29.55;;;7.50;93.60;;;;;;5015789;28;20033;-65
2022/01/17 03:20:39;;;;;;;42.28;30.77;;;7.50;93.50;;;;;;5016502;28;20034;-66
2022/01/17 03:23:06;;;;;;;37.45;29.63;;;7.40;93.70;;;;;;5016378;28;20075;-66
2022/01/17 03:25:33;;;;;;;38.20;30.73;;;7.40;93.70;;;;;;5015931;28;20045;-72
2022/01/17 03:27:59;;;;;;;43.10;31.38;;;7.30;93.80;;;;;;5015803;28;20384;-70
2022/01/17 03:30:24;;;;;;;42.67;30.05;;;7.30;93.70;;;;;;5015993;28;20033;-65
2022/01/17 03:32:51;;;;;;;42.35;31.33;;;7.20;93.60;;;;;;5015772;28;20030;-65
2022/01/17 03:35:17;;;;;;;36.83;29.08;;;7.20;93.60;;;;;;5016085;28;20344;-66
2022/01/17 03:37:44;;;;;;;43.65;32.60;;;7.20;93.70;;;;;;5015739;28;20456;-67
2022/01/17 03:40:11;;;;;;;39.85;30.35;;;7.20;93.70;;;;;;5015702;28;20029;-70
2022/01/17 03:42:36;;;;;;;42.17;31.05;;;7.20;93.40;;;;;;5015675;28;20104;-69
2022/01/17 03:45:07;;;;;;;39.50;31.08;;;7.20;93.70;;;;;;5015504;28;20157;-65
2022/01/17 03:47:38;;;;;;;44.00;31.70;;;7.20;93.50;;;;;;5015683;28;20029;-65
2022/01/17 03:50:07;;;;;;;42.53;32.05;;;7.20;93.70;;;;;;5015335;28;20045;-68
2022/01/17 03:52:33;;;;;;;42.60;31.80;;;7.20;93.50;;;;;;5015448;28;20391;-69
2022/01/17 03:54:59;;;;;;;43.03;32.33;;;7.10;93.50;;;;;;5015492;28;20038;-68
2022/01/17 03:57:25;;;;;;;42.92;31.65;;;7.10;93.60;;;;;;5013789;28;20030;-67
2022/01/17 03:59:51;;;;;;;42.40;30.65;;;7.10;93.60;;;;;;5015144;28;20117;-65
2022/01/17 04:02:17;;;;;;;40.40;30.73;;;7.10;93.80;;;;;;5015414;28;20104;-67
2022/01/17 04:04:42;;;;;;;41.28;32.72;;;7.00;93.70;;;;;;5015458;28;20345;-66
2022/01/17 04:07:08;;;;;;;44.83;32.90;;;7.10;93.90;;;;;;5015359;28;20034;-67
2022/01/17 04:09:34;;;;;;;41.47;31.00;;;7.00;93.70;;;;;;5014952;28;20026;-68
2022/01/17 04:11:59;;;;;;;42.33;32.72;;;7.00;93.90;;;;;;5014934;28;20057;-66
2022/01/17 04:14:25;;;;;;;40.70;32.17;;;7.10;93.80;;;;;;5014368;28;20030;-65
2022/01/17 04:16:51;;;;;;;43.13;31.38;;;7.00;93.80;;;;;;5015127;28;20155;-65
2022/01/17 04:19:19;;;;;;;41.75;32.13;;;7.00;93.90;;;;;;5014954;28;20049;-66
2022/01/17 04:21:47;;;;;;;45.05;32.20;;;6.90;93.80;;;;;;5015080;28;20348;-69
2022/01/17 04:24:13;;;;;;;42.08;32.00;;;7.00;94.10;;;;;;5014823;28;20120;-67
2022/01/17 04:26:40;;;;;;;44.90;32.22;;;7.00;94.10;;;;;;5014849;28;20045;-66
2022/01/17 04:29:05;;;;;;;40.05;31.15;;;6.90;94.00;;;;;;5014562;28;20022;-66
2022/01/17 04:31:31;;;;;;;41.22;31.52;;;6.90;94.10;;;;;;5014802;28;20534;-68
2022/01/17 04:33:57;;;;;;;41.17;30.80;;;7.00;94.10;;;;;;5014495;28;20080;-65
2022/01/17 04:36:23;;;;;;;42.65;32.22;;;7.00;94.00;;;;;;5014626;28;20034;-65
2022/01/17 04:38:48;;;;;;;41.42;31.10;;;6.90;94.00;;;;;;5014459;28;20542;-66
2022/01/17 04:41:17;;;;;;;40.42;30.48;;;6.90;93.90;;;;;;5014573;28;20030;-66
2022/01/17 04:43:45;;;;;;;44.00;30.27;;;6.90;94.20;;;;;;5014564;28;20030;-66
2022/01/17 04:46:11;;;;;;;37.47;29.42;;;6.90;94.30;;;;;;5014403;28;20022;-66
2022/01/17 04:48:37;;;;;;;39.38;30.25;;;6.80;94.20;;;;;;5014149;28;20029;-67
2022/01/17 04:51:03;;;;;;;37.97;30.52;;;6.80;94.20;;;;;;5014207;28;20160;-67
2022/01/17 04:53:30;;;;;;;38.13;30.90;;;6.90;94.30;;;;;;5014151;28;20064;-66
2022/01/17 04:55:56;;;;;;;40.85;30.15;;;6.90;94.30;;;;;;5014184;28;20052;-66
2022/01/17 04:58:23;;;;;;;42.60;30.38;;;6.80;94.20;;;;;;5014318;28;20131;-66
2022/01/17 05:00:51;;;;;;;40.30;30.60;;;6.80;94.20;;;;;;5014434;28;20026;-65
2022/01/17 05:03:19;;;;;;;41.20;31.42;;;6.80;94.20;;;;;;5014433;28;20156;-71
2022/01/17 05:05:46;;;;;;;42.55;30.90;;;6.80;94.40;;;;;;5014233;28;20092;-68
2022/01/17 05:08:12;;;;;;;40.70;30.67;;;6.80;94.30;;;;;;5013698;28;20033;-66
2022/01/17 05:10:38;;;;;;;41.80;30.42;;;6.70;94.20;;;;;;5014378;28;20036;-66
2022/01/17 05:13:04;;;;;;;38.75;30.30;;;6.70;94.30;;;;;;5013705;28;20038;-66
2022/01/17 05:17:59;;;;;;;42.90;32.40;;;6.70;94.30;;;;;;5014136;28;20037;-65
2022/01/17 05:20:26;;;;;;;41.05;31.45;;;6.60;94.30;;;;;;5013797;28;20352;-66
2022/01/17 05:22:52;;;;;;;38.58;31.25;;;6.60;94.40;;;;;;5013851;28;20033;-66
2022/01/17 05:25:18;;;;;;;42.65;31.23;;;6.60;94.50;;;;;;5013548;28;20076;-66
2022/01/17 05:27:44;;;;;;;41.17;32.00;;;6.60;94.50;;;;;;5012996;28;20382;-66
2022/01/17 05:30:13;;;;;;;41.58;32.72;;;6.60;94.40;;;;;;5013828;28;20109;-66
2022/01/17 05:32:39;;;;;;;42.95;31.90;;;6.60;94.30;;;;;;5013485;28;20103;-67
2022/01/17 05:35:06;;;;;;;42.88;32.67;;;6.50;94.60;;;;;;5013608;28;20066;-67
2022/01/17 05:37:32;;;;;;;43.65;32.17;;;6.50;94.20;;;;;;5013706;28;20030;-65
2022/01/17 05:39:58;;;;;;;43.38;32.30;;;6.50;94.40;;;;;;5013483;28;20033;-67
2022/01/17 05:42:24;;;;;;;42.38;30.92;;;6.50;94.40;;;;;;5013351;28;20061;-66
2022/01/17 05:44:50;;;;;;;40.97;31.40;;;6.60;94.50;;;;;;5013494;28;20056;-66
2022/01/17 05:47:17;;;;;;;45.05;33.20;;;6.60;94.60;;;;;;5013393;28;20033;-66
2022/01/17 05:49:43;;;;;;;43.72;32.90;;;6.60;94.50;;;;;;5013204;28;20148;-66
2022/01/17 05:52:09;;;;;;;40.63;31.42;;;6.60;94.70;;;;;;5013300;28;20408;-67
2022/01/17 05:54:35;;;;;;;42.95;31.67;;;6.60;94.60;;;;;;5013122;28;20041;-65
2022/01/17 05:57:02;;;;;;;42.63;33.42;;;6.60;94.60;;;;;;5013304;28;20025;-66
2022/01/17 05:59:27;;;;;;;42.40;32.03;;;6.60;94.50;;;;;;5013128;28;20460;-66
2022/01/17 06:01:53;;;;;;;40.67;31.00;;;6.60;94.50;;;;;;5012973;28;20025;-66
2022/01/17 06:04:20;;;;;;;43.28;32.40;;;6.70;94.70;;;;;;5013059;28;20390;-66
2022/01/17 06:06:46;;;;;;;41.78;31.15;;;6.70;94.60;;;;;;5013301;28;20411;-67
2022/01/17 06:09:12;;;;;;;44.35;31.73;;;6.60;94.70;;;;;;5012893;28;20025;-66
2022/01/17 06:11:37;;;;;;;42.53;32.08;;;6.60;94.80;;;;;;5012852;28;20071;-66
2022/01/17 06:14:04;;;;;;;41.83;32.50;;;6.60;94.90;;;;;;5013039;28;20492;-67
2022/01/17 06:16:30;;;;;;;45.28;32.88;;;6.60;94.70;;;;;;5012954;28;20069;-67
2022/01/17 06:18:56;;;;;;;44.65;32.55;;;6.60;94.80;;;;;;5012836;28;20053;-66
2022/01/17 06:21:22;;;;;;;42.58;32.28;;;6.60;94.90;;;;;;5012708;28;20382;-66
2022/01/17 06:23:48;;;;;;;44.55;33.22;;;6.50;94.90;;;;;;5012839;28;20037;-66
2022/01/17 06:26:14;;;;;;;43.13;32.78;;;6.50;95.00;;;;;;5012813;28;20100;-67
2022/01/17 06:28:39;;;;;;;44.40;33.83;;;6.60;94.90;;;;;;5012756;28;20030;-68
2022/01/17 06:31:05;;;;;;;42.92;32.88;;;6.60;95.00;;;;;;5012942;28;20091;-66
2022/01/17 06:33:31;;;;;;;45.28;32.00;;;6.60;94.90;;;;;;5012779;28;20072;-66
2022/01/17 06:35:56;;;;;;;43.13;32.85;;;6.60;94.90;;;;;;5012788;28;20022;-66
2022/01/17 06:38:22;;;;;;;44.90;32.33;;;6.60;94.80;;;;;;5015173;28;20152;-66
2022/01/17 06:40:48;;;;;;;41.63;32.20;;;6.60;94.80;;;;;;5016653;28;20026;-68
2022/01/17 06:43:14;;;;;;;42.80;31.45;;;6.60;94.90;;;;;;5016453;28;20360;-67
2022/01/17 06:45:40;;;;;;;42.97;31.60;;;6.60;94.70;;;;;;5016626;28;20029;-67
2022/01/17 06:48:06;;;;;;;42.03;31.67;;;6.60;94.80;;;;;;5016268;28;20029;-68
2022/01/17 06:50:33;;;;;;;43.25;31.88;;;6.60;94.70;;;;;;5016041;28;20046;-69
2022/01/17 06:52:58;;;;;;;41.13;30.65;;;6.50;94.70;;;;;;5016026;28;20038;-66
2022/01/17 06:55:24;;;;;;;45.25;34.13;;;6.50;94.90;;;;;;5016188;28;20450;-67
2022/01/17 06:57:50;;;;;;;42.03;31.67;;;6.60;94.70;;;;;;5016531;28;20018;-65
2022/01/17 07:00:16;;;;;;;42.17;32.10;;;6.60;94.70;;;;;;5016316;28;20444;-66
2022/01/17 07:02:42;;;;;;;45.42;32.70;;;6.50;94.50;;;;;;5016269;28;20022;-66
2022/01/17 07:05:08;;;;;;;45.00;33.17;;;6.60;94.60;;;;;;5031137;28;20391;-66
2022/01/17 07:07:34;;;;;;;43.78;33.10;;;6.60;94.50;;;;;;5015682;28;20029;-66
2022/01/17 07:09:59;;;;;;;42.83;33.40;;;6.60;94.70;;;;;;5015583;28;20513;-67
2022/01/17 07:12:25;;;;;;;51.10;32.55;;;6.70;94.60;;;;;;5015940;28;20022;-67
2022/01/17 07:14:51;;;;;;;43.13;31.83;;;6.70;94.40;;;;;;5015711;28;20387;-68
2022/01/17 07:17:17;;;;;;;42.58;32.90;;;6.70;94.50;;;;;;5015788;28;20025;-66
2022/01/17 07:19:42;;;;;;;45.58;32.38;;;6.80;94.30;;;;;;5015543;28;20018;-67
2022/01/17 07:22:09;;;;;;;48.80;33.53;;;6.80;94.30;;;;;;5015679;28;20121;-67
2022/01/17 07:24:35;;;;;;;42.58;31.52;;;6.80;94.40;;;;;;5015494;28;20030;-68
2022/01/17 07:27:01;;;;;;;43.25;31.08;;;6.90;94.30;;;;;;5015684;28;20045;-69
2022/01/17 07:29:27;;;;;;;45.47;30.80;;;7.00;94.50;;;;;;5015538;28;20033;-67
2022/01/17 07:31:54;;;;;;;43.38;28.85;;;7.00;94.20;;;;;;5015332;28;20028;-67
2022/01/17 07:34:20;;;;;;;44.88;30.77;;;7.10;94.20;;;;;;5015402;28;20052;-67
2022/01/17 07:36:46;;;;;;;41.63;28.75;;;7.20;94.30;;;;;;5015278;28;20030;-66
2022/01/17 07:39:12;;;;;;;44.90;28.98;;;7.30;94.20;;;;;;5015150;28;20026;-67
2022/01/17 07:41:38;;;;;;;42.13;28.52;;;7.30;94.00;;;;;;5015136;28;20423;-67
2022/01/17 07:44:05;;;;;;;39.42;28.90;;;7.30;94.10;;;;;;5015359;28;20452;-67
2022/01/17 07:46:47;;;;;;;40.35;29.02;;;7.40;93.80;;;;;;5015154;28;20030;-66
2022/01/17 07:49:19;;;;;;;38.05;28.33;;;7.50;93.40;;;;;;5012524;28;20045;-67
2022/01/17 07:51:56;;;;;;;40.97;28.02;;;7.50;93.90;;;;;;5015181;28;20480;-67
2022/01/17 07:54:24;;;;;;;37.63;27.55;;;7.70;93.10;;;;;;5015066;28;20034;-68
2022/01/17 07:56:50;;;;;;;40.63;28.33;;;7.70;94.10;;;;;;5014983;28;20105;-66
2022/01/17 07:59:15;;;;;;;40.65;27.52;;;7.70;93.50;;;;;;5014807;28;20033;-68
2022/01/17 08:01:41;;;;;;;38.10;27.67;;;7.80;93.60;;;;;;5014932;28;20030;-68
2022/01/17 08:04:08;;;;;;;36.80;26.23;;;7.80;93.30;;;;;;5015171;28;20566;-67
2022/01/17 08:06:39;;;;;;;47.65;27.70;;;7.80;93.40;;;;;;5014746;28;20056;-69
2022/01/17 08:09:17;;;;;;;42.85;26.83;;;7.80;93.10;;;;;;5014850;28;20069;-69
2022/01/17 08:11:43;;;;;;;35.55;26.30;;;7.70;92.40;;;;;;5014587;28;20141;-67
2022/01/17 08:14:09;;;;;;;37.08;26.45;;;7.80;93.30;;;;;;5014436;28;20566;-65
2022/01/17 08:16:35;;;;;;;33.72;26.00;;;7.80;93.30;;;;;;5015260;28;20110;-71
2022/01/17 08:19:01;;;;;;;38.97;26.00;;;7.80;93.10;;;;;;5014405;28;20482;-66
2022/01/17 08:21:27;;;;;;;33.90;26.08;;;7.80;93.30;;;;;;5014610;28;20072;-68
2022/01/17 08:23:53;;;;;;;38.67;26.00;;;7.80;93.30;;;;;;5014234;28;20018;-68
2022/01/17 08:26:20;;;;;;;39.65;26.05;;;7.80;93.20;;;;;;5014305;28;20034;-67
2022/01/17 08:28:46;;;;;;;39.83;26.58;;;7.80;93.30;;;;;;5013935;28;20026;-67
2022/01/17 08:31:12;;;;;;;39.00;27.33;;;7.80;93.20;;;;;;5013918;28;20018;-66
2022/01/17 08:33:38;;;;;;;35.78;26.23;;;7.80;93.20;;;;;;5014142;28;20042;-67
2022/01/17 08:36:04;;;;;;;36.22;25.08;;;7.80;93.20;;;;;;5014121;28;20097;-67
2022/01/17 08:38:30;;;;;;;33.55;26.13;;;7.90;93.00;;;;;;5013975;28;20056;-67
2022/01/17 08:40:58;;;;;;;38.90;24.67;;;7.90;93.20;;;;;;5014212;28;20022;-67
2022/01/17 08:43:24;;;;;;;35.92;25.60;;;7.90;93.20;;;;;;5013740;28;20087;-67
2022/01/17 08:45:50;;;;;;;36.58;23.35;;;8.00;93.50;;;;;;5013855;28;20417;-68
2022/01/17 08:48:16;;;;;;;35.70;25.05;;;8.00;93.30;;;;;;5014013;28;20033;-66
2022/01/17 08:50:44;;;;;;;31.70;24.73;;;8.00;92.90;;;;;;5013920;28;20061;-68
2022/01/17 08:53:13;;;;;;;34.75;22.02;;;8.00;93.30;;;;;;5012958;28;20406;-67
2022/01/17 08:55:39;;;;;;;31.55;23.60;;;8.10;93.10;;;;;;5013962;28;20026;-67
2022/01/17 08:58:06;;;;;;;44.90;24.50;;;8.10;93.30;;;;;;5014438;28;20032;-67
2022/01/17 09:00:32;;;;;;;35.70;23.83;;;8.10;93.30;;;;;;5013902;28;20022;-66
2022/01/17 09:02:58;;;;;;;29.50;23.08;;;8.20;93.00;;;;;;5014013;28;20022;-68
2022/01/17 09:05:24;;;;;;;32.22;22.88;;;8.30;93.10;;;;;;5013996;28;20017;-68
2022/01/17 09:07:50;;;;;;;36.10;24.27;;;8.30;92.90;;;;;;5013725;28;20083;-69
2022/01/17 09:10:15;;;;;;;33.72;22.83;;;8.40;92.90;;;;;;5013976;28;20022;-69
2022/01/17 09:12:41;;;;;;;41.63;28.58;;;8.50;92.80;;;;;;5013646;28;20032;-67
2022/01/17 09:15:08;;;;;;;34.33;24.67;;;8.50;92.70;;;;;;5013713;28;20097;-72
2022/01/17 09:17:33;;;;;;;29.75;22.88;;;8.60;92.50;;;;;;5013950;28;20022;-68
2022/01/17 09:19:59;;;;;;;34.92;24.38;;;8.70;92.80;;;;;;5013699;28;20033;-68
2022/01/17 09:22:25;;;;;;;29.85;23.40;;;8.80;92.70;;;;;;5013733;28;20498;-68
2022/01/17 09:24:51;;;;;;;31.05;22.65;;;8.90;92.60;;;;;;5013615;28;20482;-69
2022/01/17 09:27:18;;;;;;;33.40;22.02;;;8.90;92.20;;;;;;5012181;28;20057;-68
2022/01/17 09:29:44;;;;;;;30.63;21.83;;;9.00;92.10;;;;;;5028490;28;20387;-68
2022/01/17 09:32:10;;;;;;;33.38;21.75;;;9.00;91.90;;;;;;5013571;28;20037;-70
2022/01/17 09:34:35;;;;;;;36.67;21.58;;;9.10;91.70;;;;;;5013569;28;20116;-71
2022/01/17 09:37:01;;;;;;;29.20;21.10;;;9.10;91.30;;;;;;5013457;28;20064;-66
2022/01/17 09:39:27;;;;;;;29.33;22.73;;;9.20;91.20;;;;;;5013081;28;20032;-68
2022/01/17 09:41:53;;;;;;;29.30;20.23;;;9.30;91.20;;;;;;5013547;28;20022;-68
2022/01/17 09:44:19;;;;;;;28.83;19.60;;;9.30;90.90;;;;;;5013612;28;20056;-68
2022/01/17 09:46:48;;;;;;;26.52;17.20;;;9.40;90.60;;;;;;5013435;28;20479;-66
2022/01/17 09:49:30;;;;;;;31.08;17.88;;;9.40;90.50;;;;;;5012707;28;20057;-69
2022/01/17 09:52:08;;;;;;;26.40;18.98;;;9.40;90.20;;;;;;5013080;28;20471;-67
2022/01/17 09:54:36;;;;;;;36.75;19.98;;;9.50;90.40;;;;;;5013197;28;20048;-67
2022/01/17 09:57:08;;;;;;;33.38;19.50;;;9.60;90.20;;;;;;5012974;28;20049;-66
2022/01/17 09:59:37;;;;;;;28.05;18.00;;;9.70;90.20;;;;;;5012601;28;20034;-68
2022/01/17 10:02:04;;;;;;;27.35;18.15;;;9.80;90.10;;;;;;5012874;28;20030;-68
2022/01/17 10:04:30;;;;;;;31.33;19.10;;;9.90;89.60;;;;;;5012888;28;20033;-69
2022/01/17 10:06:57;;;;;;;31.83;18.00;;;10.00;88.40;;;;;;5013659;28;20084;-70
2022/01/17 10:09:28;;;;;;;24.40;16.48;;;10.10;88.40;;;;;;5013167;28;20026;-70
2022/01/17 10:12:02;;;;;;;25.15;14.85;;;10.20;88.00;;;;;;5013036;28;20410;-69
2022/01/17 10:14:29;;;;;;;;;;;10.30;87.60;;;;;;5013666;28;20038;-71
2022/01/17 10:16:55;;;;;;;24.33;13.88;;;10.40;87.10;;;;;;5012967;28;19906;-71
2022/01/17 10:19:26;;;;;;;23.63;13.25;;;10.50;86.70;;;;;;5013220;28;20091;-70
2022/01/17 10:21:56;;;;;;;23.17;13.63;;;10.50;86.50;;;;;;5013237;28;20018;-72
2022/01/17 10:24:35;;;;;;;24.48;13.68;;;10.60;85.90;;;;;;5012648;28;20026;-70
2022/01/17 10:35:30;;;;;;;27.77;13.20;;;10.90;83.60;;;;;;5012779;28;20140;-68
2022/01/17 10:38:19;;;;;;;19.88;12.80;;;11.00;83.60;;;;;;5012498;28;20104;-67
2022/01/17 10:40:53;;;;;;;37.72;13.90;;;11.10;83.00;;;;;;5012199;28;20072;-67
2022/01/17 10:43:19;;;;;;;;;;;11.20;82.40;;;;;;5012855;28;20139;-67
2022/01/17 10:45:44;;;;;;;21.98;13.00;;;11.20;80.80;;;;;;5011123;28;19906;-68
2022/01/17 10:48:10;;;;;;;28.80;12.82;;;11.20;81.40;;;;;;5012233;28;20101;-67
2022/01/17 10:50:45;;;;;;;23.02;14.18;;;11.30;81.90;;;;;;5012257;28;20503;-66
2022/01/17 10:53:19;;;;;;;26.35;13.25;;;11.40;81.40;;;;;;5012614;28;20088;-67
2022/01/17 10:55:51;;;;;;;23.55;12.15;;;11.50;81.30;;;;;;5012212;28;20038;-68
2022/01/17 10:58:26;;;;;;;26.23;11.52;;;11.60;81.00;;;;;;5012577;28;20026;-68
2022/01/17 11:01:09;;;;;;;18.90;11.32;;;11.60;79.90;;;;;;5011045;28;20454;-67
2022/01/17 11:03:35;;;;;;;20.92;10.18;;;11.70;79.60;;;;;;5014346;28;20088;-66
2022/01/17 11:06:11;;;;;;;20.45;9.60;;;11.80;78.90;;;;;;5012176;28;20460;-66
2022/01/17 11:08:39;;;;;;;18.98;9.90;;;11.90;78.80;;;;;;5012014;28;20031;-67
2022/01/17 11:11:08;;;;;;;12.95;6.97;;;12.00;77.50;;;;;;5027362;28;20041;-67
2022/01/17 11:13:35;;;;;;;13.68;6.32;;;12.10;76.20;;;;;;5012032;28;20044;-67
2022/01/17 11:16:07;;;;;;;13.57;5.70;;;12.10;75.90;;;;;;5012042;28;20021;-68
2022/01/17 11:18:35;;;;;;;11.77;6.13;;;12.20;75.40;;;;;;5012123;28;20034;-66
2022/01/17 11:21:14;;;;;;;17.65;6.30;;;12.30;75.10;;;;;;5012086;28;20399;-66
2022/01/17 11:23:47;;;;;;;14.07;6.13;;;12.40;74.40;;;;;;5012566;28;20096;-66
2022/01/17 11:26:14;;;;;;;11.88;6.15;;;12.40;74.50;;;;;;5016430;28;20026;-67
2022/01/17 11:28:41;;;;;;;14.98;6.30;;;12.40;74.90;;;;;;5015622;28;20188;-68
2022/01/17 11:31:12;;;;;;;11.75;6.57;;;12.50;73.70;;;;;;5015761;28;20065;-68
2022/01/17 11:33:38;;;;;;;15.15;6.47;;;12.50;73.60;;;;;;5047332;28;20372;-67
2022/01/17 11:36:04;;;;;;;15.77;6.57;;;12.60;73.40;;;;;;5015159;28;20026;-67
2022/01/17 11:38:40;;;;;;;13.23;6.97;;;12.60;73.30;;;;;;5015384;28;20087;-68
2022/01/17 11:41:19;;;;;;;14.32;6.75;;;12.70;73.00;;;;;;5015295;28;20045;-66
2022/01/17 11:43:56;;;;;;;12.20;6.78;;;12.80;72.70;;;;;;5015172;28;20471;-66
2022/01/17 11:46:28;;;;;;;10.35;7.00;;;12.80;72.20;;;;;;5030262;28;20025;-68
2022/01/17 11:49:02;;;;;;;13.60;6.18;;;12.80;71.70;;;;;;5015317;28;20113;-68
2022/01/17 11:51:46;;;;;;;12.20;5.82;;;12.90;71.80;;;;;;5015109;28;20309;-67
2022/01/17 11:54:16;;;;;;;12.80;6.30;;;12.90;70.90;;;;;;5015026;28;20503;-67
2022/01/17 11:56:54;;;;;;;13.60;6.38;;;13.00;72.00;;;;;;5014940;28;20044;-67
2022/01/17 11:59:34;;;;;;;11.48;5.93;;;13.10;71.40;;;;;;5014707;28;20029;-67
2022/01/17 12:02:29;;;;;;;11.93;6.40;;;13.10;70.50;;;;;;5014741;28;20033;-67
2022/01/17 12:05:07;;;;;;;14.52;7.00;;;13.10;69.70;;;;;;5014622;28;20076;-68
2022/01/17 12:07:40;;;;;;;13.25;6.47;;;13.20;70.50;;;;;;5014823;28;20041;-68
2022/01/17 12:10:08;;;;;;;12.13;5.90;;;13.30;70.30;;;;;;5014847;28;20030;-67
2022/01/17 12:12:34;;;;;;;10.00;5.82;;;13.30;70.10;;;;;;5014533;28;20103;-66
2022/01/17 12:15:05;;;;;;;13.52;6.22;;;13.40;69.40;;;;;;5014598;28;20033;-67
2022/01/17 12:17:31;;;;;;;15.48;6.10;;;13.40;68.80;;;;;;5014466;28;20022;-68
2022/01/17 12:20:14;;;;;;;12.85;5.82;;;13.40;68.50;;;;;;5014509;28;20022;-70
2022/01/17 12:22:43;;;;;;;12.30;6.15;;;13.50;67.60;;;;;;5014784;28;20037;-68
2022/01/17 12:25:29;;;;;;;14.73;5.90;;;13.60;68.30;;;;;;5014830;28;20018;-67
2022/01/17 12:28:03;;;;;;;10.50;5.70;;;13.60;68.10;;;;;;5014478;28;20038;-70
2022/01/17 12:30:56;;;;;;;13.05;5.80;;;13.70;67.30;;;;;;5014202;28;20079;-69
2022/01/17 12:33:28;;;;;;;10.93;6.03;;;13.80;66.50;;;;;;5014270;28;20104;-68
2022/01/17 12:35:55;;;;;;;13.25;5.95;;;13.80;66.90;;;;;;5013907;28;20030;-67
2022/01/17 12:38:37;;;;;;;10.52;5.68;;;13.90;65.90;;;;;;5014083;28;20062;-66
2022/01/17 12:41:03;;;;;;;14.40;7.78;;;13.90;66.20;;;;;;5014653;28;20021;-66
2022/01/17 12:43:38;;;;;;;14.20;6.05;;;14.00;66.00;;;;;;5014755;28;20029;-66
2022/01/17 12:46:07;;;;;;;11.55;5.90;;;14.00;65.80;;;;;;5014539;28;20029;-68
2022/01/17 12:48:36;;;;;;;13.38;6.53;;;14.10;64.80;;;;;;5014088;28;20021;-68
2022/01/17 12:51:05;;;;;;;13.60;6.40;;;14.10;64.60;;;;;;5014206;28;20034;-67
2022/01/17 12:53:32;;;;;;;11.73;5.70;;;14.20;64.50;;;;;;5014038;28;20386;-68
2022/01/17 12:56:07;;;;;;;11.80;5.10;;;14.30;64.50;;;;;;5013724;28;20076;-66
2022/01/17 12:58:36;;;;;;;10.98;5.28;;;14.30;63.10;;;;;;5013857;28;20510;-68
2022/01/17 13:01:20;;;;;;;10.00;5.43;;;14.30;63.10;;;;;;5013741;28;20049;-71
2022/01/17 13:03:47;;;;;;;13.32;6.88;;;14.40;61.70;;;;;;5013731;28;20029;-70
2022/01/17 13:06:16;;;;;;;11.43;5.53;;;14.40;63.40;;;;;;5013909;28;20395;-68
2022/01/17 13:08:44;;;;;;;12.75;6.15;;;14.40;61.80;;;;;;5013434;28;20054;-66
2022/01/17 13:11:14;;;;;;;9.18;5.30;;;14.40;61.70;;;;;;5013354;28;20037;-65
2022/01/17 13:13:52;;;;;;;14.50;5.53;;;14.40;61.60;;;;;;5013506;28;20080;-66